Aérodrome :
LOGIN :

S'inscrire | Disclaimer

   EN    FR    IT 

 










Légende :    VFR   VFR Marginal   IFR   IFR Intensif   IFR Très Intensif
Visi : 
Plafond : 
>= 8 km
>= 3000ft
5 à 8 km
1000 à 3000 ft
1500m à 5 km
500 à 1000 ft
800 à 1500m
200 à 500 ft
< 800m
< 200 ft
Symboles :   Orages  Brouillard  Fortes neiges  Fortes précipitations  Vent > 20 kt
SIGMETs :   Divers  Orages  Givrage  Turbulence  Onde Orograph.  Cendres Volcan.







- Altitude de l'aérodrome : 160 ft
- Code IATA : LRT
- Voir les cartes d'approche


LFRH - Lorient Lann Bihoue

DERNIER METAR :
  • 211530Z AUTO 36005KT 310V050 9999 FEW027 BKN036 24/18 Q1020 NOSIG

METARs EXPIRÉS :
  • 211500Z AUTO VRB04KT 9999 SCT026 24/18 Q1020 NOSIG
  • 211430Z AUTO 32006KT 280V010 9999 FEW025 SCT035 24/18 Q1020 NOSIG
  • 211400Z AUTO 27007KT 9999 BKN035 24/18 Q1020 NOSIG
  • 211330Z AUTO 29007KT 250V310 9999 OVC034 23/17 Q1021 NOSIG
  • 211300Z AUTO 26007KT 9999 OVC033 23/18 Q1021 NOSIG

TAF AMD TAF LFRH
Valide du 21 à 06h jusqu'au 22 à 06h UTC


210522Z 2106/2206 VRB03KT 9999 BKN030
PROB30
TEMPO 2106/2108 2000 BR BKN002
TEMPO 2108/2112 BKN012
BECMG 2112/2114 25010KT CAVOK
BECMG 2119/2121 02005KT
TEMPO 2202/2206 1000 BR
Pas de NOTAMs connus pour ce terrain.



MET'MAP, la Météo Aéronautique d'un coup d'oeil ! - Copyright ORBIFLY Décembre 2007 - Disclaimer

ORBIFLY MET'MAP TEAM :

Programmation & Développement : Alexandra Zaïnal
Conception & Développement : Baudouin d'Aumeries
Co-Programmation & Développement : Marc-Olivier Méhu
Soutien technique & logistique : Manuel Goepfert

Contact : metmap@orbifly.com




SOURCES & CREDITS :

   NOAA